Time;durP1;ratioP1;P1;durP2;ratioP2;P2;SDS_P1;SDS_P2;PMS_P1;PMS_P2;Temp;Humidity;BMP_temperature;BMP_pressure;BME280_temperature;BME280_humidity;BME280_pressure;Samples;Min_cycle;Max_cycle;Signal;HPM_P1;HPM_P2
2023/09/30 00:02:24;;;;;;;10.07;4.70;;;;;;;14.27;87.41;100651.69;12800745;23;20017;-77
2023/09/30 00:07:26;;;;;;;13.82;4.32;;;;;;;14.19;88.65;100646.47;12799862;23;20017;-78
2023/09/30 00:12:27;;;;;;;12.73;4.93;;;;;;;14.03;88.87;100618.94;12799734;23;20013;-77
2023/09/30 00:17:27;;;;;;;10.80;4.80;;;;;;;14.32;89.52;100639.44;12800121;23;20017;-77
2023/09/30 00:22:28;;;;;;;12.07;4.60;;;;;;;14.41;90.29;100637.50;12799360;23;20020;-77
2023/09/30 00:27:29;;;;;;;8.77;5.38;;;;;;;14.07;91.10;100572.13;12799587;23;20346;-77
2023/09/30 00:32:30;;;;;;;7.88;4.78;;;;;;;14.36;91.34;100594.50;12799394;23;20019;-77
2023/09/30 00:37:30;;;;;;;8.43;4.85;;;;;;;14.52;91.38;100596.16;12799192;23;20549;-77
2023/09/30 00:42:31;;;;;;;8.82;4.88;;;;;;;14.31;91.34;100584.34;12800728;23;20013;-77
2023/09/30 00:47:33;;;;;;;6.82;4.18;;;;;;;14.27;91.48;100622.31;12799996;23;20458;-77
2023/09/30 00:52:36;;;;;;;7.63;4.65;;;;;;;14.15;91.54;100625.47;12799152;23;20027;-77
2023/09/30 00:57:39;;;;;;;12.10;4.65;;;;;;;13.56;91.34;100561.34;12799085;23;20021;-77
2023/09/30 01:02:41;;;;;;;9.35;4.82;;;;;;;13.65;91.68;100605.63;12800146;23;20013;-77
2023/09/30 01:07:42;;;;;;;13.77;4.32;;;;;;;13.62;91.81;100615.84;12799412;23;20020;-77
2023/09/30 01:12:42;;;;;;;8.98;4.93;;;;;;;12.89;91.51;100515.88;12798706;23;20345;-77
2023/09/30 01:17:43;;;;;;;7.53;4.40;;;;;;;13.44;92.13;100621.50;12799240;23;20044;-77
2023/09/30 01:22:44;;;;;;;14.63;4.53;;;;;;;13.10;92.10;100584.53;12798459;23;20024;-77
2023/09/30 01:27:45;;;;;;;9.45;5.03;;;;;;;12.36;92.15;100494.44;12799999;23;20487;-77
2023/09/30 01:32:46;;;;;;;10.30;4.53;;;;;;;13.13;92.92;100633.03;12772538;23;20024;-77
2023/09/30 01:37:47;;;;;;;8.95;4.90;;;;;;;12.96;92.95;100620.81;12798775;23;20050;-77
2023/09/30 01:42:47;;;;;;;8.07;4.22;;;;;;;12.86;92.94;100620.19;12798170;23;20013;-77
2023/09/30 01:47:48;;;;;;;9.18;4.72;;;;;;;12.70;93.14;100610.47;12799356;23;20025;-77
2023/09/30 01:52:49;;;;;;;7.45;5.00;;;;;;;12.36;92.87;100574.34;12797788;23;20017;-77
2023/09/30 01:57:50;;;;;;;9.10;5.38;;;;;;;12.65;92.86;100631.47;12797725;23;20025;-78
2023/09/30 02:02:50;;;;;;;12.20;5.05;;;;;;;12.57;92.79;100641.19;12798285;23;20437;-78
2023/09/30 02:07:51;;;;;;;15.10;5.78;;;;;;;12.49;92.65;100635.06;12798851;23;20017;-77
2023/09/30 02:12:52;;;;;;;10.43;5.60;;;;;;;12.42;91.86;100644.78;12797223;23;20017;-77
2023/09/30 02:17:53;;;;;;;10.57;5.68;;;;;;;12.17;92.26;100618.19;12797452;23;20021;-77
2023/09/30 02:22:54;;;;;;;46.33;7.82;;;;;;;11.69;91.75;100542.75;12798343;23;20075;-77
2023/09/30 02:27:54;;;;;;;12.98;6.22;;;;;;;11.94;91.79;100601.31;12798139;23;20040;-77
2023/09/30 02:32:56;;;;;;;8.68;5.47;;;;;;;11.77;91.50;100587.16;12797762;23;20088;-77
2023/09/30 02:37:57;;;;;;;13.50;6.32;;;;;;;11.96;91.43;100633.91;12797530;23;20526;-77
2023/09/30 02:42:57;;;;;;;10.95;5.78;;;;;;;10.66;91.72;100438.88;12796551;23;20021;-77
2023/09/30 02:47:58;;;;;;;39.70;7.00;;;;;;;11.58;91.44;100567.09;12797790;23;20081;-77
2023/09/30 02:52:59;;;;;;;11.95;5.75;;;;;;;12.04;91.42;100639.22;12771267;23;20419;-77
2023/09/30 02:58:00;;;;;;;15.65;6.07;;;;;;;11.92;91.23;100606.78;12796781;23;20024;-77
2023/09/30 03:03:02;;;;;;;15.98;6.57;;;;;;;12.06;91.30;100639.88;12797064;23;20017;-77
2023/09/30 03:08:05;;;;;;;14.43;5.93;;;;;;;11.93;91.40;100628.91;12797589;23;20023;-77
2023/09/30 03:13:05;;;;;;;13.05;5.97;;;;;;;11.94;91.20;100633.25;12797812;23;20013;-77
2023/09/30 03:18:06;;;;;;;18.23;6.43;;;;;;;11.91;91.08;100618.44;12797436;23;20021;-77
2023/09/30 03:23:08;;;;;;;73.30;7.90;;;;;;;12.00;91.13;100643.22;12796618;23;20043;-77
2023/09/30 03:28:09;;;;;;;18.67;6.15;;;;;;;12.23;90.82;100662.78;12797280;23;20103;-77
2023/09/30 03:33:10;;;;;;;19.90;6.20;;;;;;;12.46;90.67;100657.56;12797849;23;20084;-77
2023/09/30 03:38:12;;;;;;;23.08;6.25;;;;;;;12.44;89.97;100637.41;12796318;23;20116;-77
2023/09/30 03:43:14;;;;;;;17.27;5.75;;;;;;;12.87;89.85;100661.88;12797240;23;20047;-77
2023/09/30 03:48:15;;;;;;;59.92;6.90;;;;;;;12.87;89.12;100622.72;12797045;23;20024;-77
2023/09/30 03:53:16;;;;;;;29.73;8.63;;;;;;;13.41;88.92;100668.03;12797026;23;20096;-78
2023/09/30 03:58:18;;;;;;;216.23;122.75;;;;;;;13.43;87.37;100574.44;12800779;23;20049;-77
2023/09/30 04:03:19;;;;;;;44.97;20.48;;;;;;;14.40;86.48;100657.25;12799995;23;20024;-77
2023/09/30 04:08:19;;;;;;;45.05;14.77;;;;;;;14.46;86.15;100596.88;12798888;23;20700;-81
2023/09/30 04:13:21;;;;;;;34.60;11.65;;;;;;;15.53;84.86;100661.19;12800426;23;20017;-78
2023/09/30 04:18:22;;;;;;;20.80;7.15;;;;;;;15.71;83.56;100601.84;12800888;23;20017;-77
2023/09/30 04:23:23;;;;;;;17.30;5.70;;;;;;;16.79;81.06;100670.09;12799602;23;20096;-78
2023/09/30 04:28:24;;;;;;;20.15;8.13;;;;;;;17.01;79.51;100659.22;12748923;23;20021;-78
2023/09/30 04:33:25;;;;;;;26.50;8.50;;;;;;;16.97;78.42;100628.44;12799789;23;20425;-78
2023/09/30 04:38:25;;;;;;;14.32;5.03;;;;;;;16.98;77.59;100581.78;12799952;23;20016;-77
2023/09/30 04:43:29;;;;;;;13.32;5.80;;;;;;;17.48;77.44;100646.69;12799249;23;20017;-78
2023/09/30 04:48:31;;;;;;;18.27;8.35;;;;;;;17.55;76.29;100629.53;12800048;23;20059;-77
2023/09/30 04:53:33;;;;;;;18.98;7.72;;;;;;;17.77;76.36;100642.78;12799706;23;20017;-77
2023/09/30 04:58:34;;;;;;;14.57;6.65;;;;;;;18.04;75.68;100654.34;12799012;23;20079;-78
2023/09/30 05:03:35;;;;;;;11.45;5.35;;;;;;;18.39;75.38;100675.56;12772620;23;20017;-77
2023/09/30 05:08:36;;;;;;;9.20;4.32;;;;;;;18.20;74.60;100629.69;12798972;23;20013;-77
2023/09/30 05:13:37;;;;;;;16.38;5.35;;;;;;;18.18;74.70;100610.25;12799963;23;20446;-78
2023/09/30 05:18:38;;;;;;;20.20;6.55;;;;;;;18.49;74.29;100670.56;12799536;23;20029;-78
2023/09/30 05:23:39;;;;;;;9.13;4.68;;;;;;;18.22;74.83;100637.56;12798703;23;20079;-77
2023/09/30 05:28:39;;;;;;;9.30;3.78;;;;;;;18.45;74.79;100655.88;12797135;23;20066;-77
2023/09/30 05:33:40;;;;;;;18.40;4.03;;;;;;;18.82;73.15;100621.19;12796282;23;20017;-79
2023/09/30 05:38:41;;;;;;;36.25;4.47;;;;;;;19.00;72.13;100624.00;12798164;23;20024;-79
2023/09/30 05:43:43;;;;;;;14.48;4.72;;;;;;;19.13;72.14;100637.34;12798482;23;20438;-79
2023/09/30 05:48:44;;;;;;;42.42;5.63;;;;;;;18.96;72.94;100644.28;12798558;23;20009;-79
2023/09/30 05:53:47;;;;;;;15.27;4.45;;;;;;;18.94;72.96;100654.47;12797767;23;20100;-78
2023/09/30 05:58:47;;;;;;;16.08;4.03;;;;;;;18.85;73.25;100640.44;12798626;23;20365;-79
2023/09/30 06:03:49;;;;;;;18.98;4.32;;;;;;;19.25;73.16;100640.19;12795381;23;20013;-80
2023/09/30 06:08:50;;;;;;;16.58;4.07;;;;;;;19.15;72.43;100600.28;12798671;23;20017;-78
2023/09/30 06:14:00;;;;;;;16.92;4.50;;;;;;;19.92;72.01;100672.00;12771364;23;20012;-76
2023/09/30 06:19:02;;;;;;;11.27;4.07;;;;;;;19.81;72.61;100646.63;12797114;23;20099;-81
2023/09/30 06:24:04;;;;;;;31.88;5.20;;;;;;;19.84;72.95;100603.03;12797773;23;20370;-81
2023/09/30 06:29:06;;;;;;;35.17;5.60;;;;;;;20.43;72.51;100571.03;12796922;23;20374;-83
2023/09/30 06:34:07;;;;;;;14.82;4.93;;;;;;;21.56;71.88;100653.16;12798208;23;20349;-73
2023/09/30 06:39:08;;;;;;;25.50;9.82;;;;;;;21.57;71.13;100592.66;12770747;23;20095;-84
2023/09/30 06:44:09;;;;;;;28.05;8.20;;;;;;;22.27;70.00;100640.50;12771458;23;20046;-82
2023/09/30 06:49:10;;;;;;;27.80;6.93;;;;;;;21.98;68.29;100580.03;12797999;23;20021;-83
2023/09/30 06:54:11;;;;;;;17.15;9.63;;;;;;;22.31;67.78;100580.22;12798885;23;20020;-81
2023/09/30 06:59:12;;;;;;;21.02;6.70;;;;;;;22.41;66.14;100606.69;12797234;23;20063;-84
2023/09/30 07:04:13;;;;;;;18.08;4.75;;;;;;;22.86;64.97;100645.75;12797520;23;20075;-83
2023/09/30 07:09:13;;;;;;;13.27;4.50;;;;;;;23.12;63.25;100645.16;12796442;23;20330;-83
2023/09/30 07:14:14;;;;;;;12.30;4.03;;;;;;;22.79;62.90;100542.94;12793700;23;20021;-82
2023/09/30 07:19:15;;;;;;;21.48;3.60;;;;;;;23.39;62.04;100639.13;12795573;23;20079;-84
2023/09/30 07:24:15;;;;;;;10.85;4.47;;;;;;;23.32;60.42;100595.09;12794767;23;20017;-82
2023/09/30 07:29:16;;;;;;;12.45;3.83;;;;;;;23.76;59.09;100639.47;12797751;23;20021;-82
2023/09/30 07:34:17;;;;;;;13.25;4.68;;;;;;;23.50;55.85;100565.00;12801602;23;20017;-85
2023/09/30 07:39:18;;;;;;;15.85;3.17;;;;;;;23.66;55.16;100566.91;12800974;23;20021;-83
2023/09/30 07:44:19;;;;;;;11.02;4.32;;;;;;;23.53;53.76;100525.75;12801199;23;20099;-82
2023/09/30 07:49:20;;;;;;;16.98;5.45;;;;;;;23.86;52.68;100554.69;12799853;23;20389;-82
2023/09/30 07:54:20;;;;;;;10.38;3.47;;;;;;;24.30;51.07;100598.16;12774231;23;20017;-86
2023/09/30 07:59:21;;;;;;;9.45;3.58;;;;;;;24.59;50.22;100582.50;12801227;23;20020;-83
2023/09/30 08:04:22;;;;;;;9.18;3.20;;;;;;;24.29;48.42;100517.75;12800905;23;20100;-81
2023/09/30 08:09:23;;;;;;;18.05;3.97;;;;;;;24.55;48.36;100563.16;12800553;23;20319;-84
2023/09/30 08:14:24;;;;;;;15.45;3.53;;;;;;;24.97;48.32;100578.78;12800825;23;20048;-83
2023/09/30 08:19:25;;;;;;;13.52;3.35;;;;;;;24.65;48.12;100526.31;12799896;23;20016;-83
2023/09/30 08:24:28;;;;;;;12.20;3.05;;;;;;;24.84;46.46;100530.31;12800390;23;20051;-82
2023/09/30 08:29:29;;;;;;;9.23;3.28;;;;;;;25.10;46.09;100568.56;12799655;23;20365;-80
2023/09/30 08:34:30;;;;;;;7.18;2.90;;;;;;;24.89;45.72;100559.41;12800037;23;20043;-83
2023/09/30 08:39:31;;;;;;;9.52;2.80;;;;;;;24.83;45.43;100515.91;12772641;23;20349;-83
2023/09/30 08:44:31;;;;;;;7.78;3.05;;;;;;;25.27;44.73;100563.84;12799366;23;20017;-81
2023/09/30 08:49:38;;;;;;;9.40;2.63;;;;;;;24.43;41.44;100415.03;12798989;23;20017;-82
2023/09/30 08:54:38;;;;;;;15.27;2.80;;;;;;;25.41;42.50;100524.25;12799006;23;20020;-84
2023/09/30 08:59:42;;;;;;;11.43;3.00;;;;;;;25.59;42.00;100550.22;12800302;23;20452;-82
2023/09/30 09:04:44;;;;;;;12.93;3.53;;;;;;;25.60;42.44;100534.69;12799583;23;20346;-87
2023/09/30 09:10:08;;;;;;;17.13;3.35;;;;;;;25.89;42.89;100546.88;12798963;23;20068;-83
2023/09/30 09:15:23;;;;;;;21.17;3.42;;;;;;;25.67;40.88;100487.16;12773581;23;20024;-84
2023/09/30 09:20:28;;;;;;;12.95;3.10;;;;;;;25.72;41.86;100468.09;12799616;23;20044;-84
2023/09/30 09:25:37;;;;;;;17.40;2.83;;;;;;;25.52;40.44;100432.66;12798669;23;20021;-83
2023/09/30 09:30:40;;;;;;;6.82;2.70;;;;;;;25.86;40.86;100459.50;12799063;23;20017;-84
2023/09/30 09:35:48;;;;;;;22.83;3.70;;;;;;;26.36;37.99;100529.63;12799659;23;20354;-86
2023/09/30 09:40:48;;;;;;;15.60;2.45;;;;;;;26.22;38.69;100520.31;12772413;23;20056;-82
2023/09/30 09:45:50;;;;;;;10.93;2.58;;;;;;;26.31;37.62;100515.97;12799244;23;20013;-84
2023/09/30 09:50:51;;;;;;;7.80;2.40;;;;;;;25.92;37.79;100445.63;12798179;23;20107;-87
2023/09/30 09:55:53;;;;;;;36.50;3.90;;;;;;;26.36;38.36;100498.84;12798518;23;20446;-85
2023/09/30 10:00:56;;;;;;;11.27;3.03;;;;;;;26.08;36.96;100505.56;12798005;23;20621;-86
2023/09/30 10:05:58;;;;;;;19.50;3.60;;;;;;;25.99;37.84;100466.34;12797663;23;20021;-82
2023/09/30 10:10:59;;;;;;;22.15;3.33;;;;;;;25.90;37.21;100453.25;12797216;23;20075;-88
2023/09/30 10:16:00;;;;;;;9.60;2.40;;;;;;;26.23;37.07;100486.53;12798215;23;20067;-86
2023/09/30 10:21:09;;;;;;;12.38;2.70;;;;;;;25.99;36.67;100433.66;12799399;23;20564;-83
2023/09/30 10:26:13;;;;;;;10.35;2.75;;;;;;;26.32;37.36;100479.47;12770831;23;20078;-87
2023/09/30 10:31:20;;;;;;;13.27;3.00;;;;;;;26.44;37.75;100478.41;12797832;23;20017;-84
2023/09/30 10:36:30;;;;;;;12.82;2.50;;;;;;;25.96;36.46;100366.97;12798843;23;20429;-89
2023/09/30 10:41:45;;;;;;;11.30;2.60;;;;;;;26.67;37.16;100472.47;12798231;23;20017;-84
2023/09/30 10:46:46;;;;;;;14.05;2.90;;;;;;;26.21;37.37;100379.00;12797890;23;20353;-85
2023/09/30 10:51:47;;;;;;;10.55;2.80;;;;;;;26.29;37.15;100401.03;12796990;23;20016;-82
2023/09/30 10:56:48;;;;;;;10.43;2.38;;;;;;;26.50;37.17;100426.41;12770819;23;20453;-84
2023/09/30 11:01:50;;;;;;;13.07;2.55;;;;;;;26.59;36.72;100451.22;12796968;23;20013;-83
2023/09/30 11:06:53;;;;;;;13.75;3.20;;;;;;;26.58;36.91;100434.06;12796904;23;20036;-82
2023/09/30 11:11:54;;;;;;;7.10;2.60;;;;;;;26.44;36.50;100437.56;12798360;23;20072;-84
2023/09/30 11:16:56;;;;;;;13.25;2.75;;;;;;;26.33;36.81;100415.78;12770238;23;20102;-85
2023/09/30 11:21:58;;;;;;;20.67;3.75;;;;;;;26.41;36.59;100422.56;12795405;23;20013;-79
2023/09/30 11:26:59;;;;;;;13.30;2.58;;;;;;;25.98;36.40;100366.72;12795162;23;20052;-79
2023/09/30 11:32:01;;;;;;;18.10;2.55;;;;;;;26.00;36.53;100389.06;12769724;23;20017;-84
2023/09/30 11:37:03;;;;;;;8.70;2.65;;;;;;;26.01;36.32;100394.22;12796447;23;20079;-82
2023/09/30 11:42:15;;;;;;;9.43;2.53;;;;;;;25.57;36.17;100315.72;12770893;23;20020;-82
2023/09/30 11:47:16;;;;;;;15.95;3.25;;;;;;;26.18;36.82;100430.19;12797996;23;20016;-83
2023/09/30 11:52:27;;;;;;;22.15;3.15;;;;;;;25.49;36.23;100314.34;12796579;23;20017;-82
2023/09/30 11:57:28;;;;;;;16.88;3.00;;;;;;;25.36;36.89;100295.00;12796593;23;20055;-81
2023/09/30 12:02:29;;;;;;;27.15;2.90;;;;;;;26.09;36.54;100414.66;12797530;23;20013;-85
2023/09/30 12:07:30;;;;;;;13.15;2.47;;;;;;;25.11;37.12;100280.19;12796892;23;20048;-83
2023/09/30 12:12:31;;;;;;;26.35;3.88;;;;;;;25.72;37.21;100388.38;12796952;23;20013;-88
2023/09/30 12:17:33;;;;;;;9.32;2.38;;;;;;;25.57;37.02;100369.31;12799719;23;20021;-82
2023/09/30 12:22:34;;;;;;;6.32;2.28;;;;;;;25.32;37.39;100338.22;12799821;23;20159;-81
2023/09/30 12:27:34;;;;;;;6.95;2.00;;;;;;;25.57;37.42;100380.19;12800230;23;20446;-82
2023/09/30 12:32:35;;;;;;;16.90;2.75;;;;;;;25.12;37.09;100324.50;12800295;23;20016;-82
2023/09/30 12:37:38;;;;;;;8.88;2.30;;;;;;;25.21;37.33;100356.38;12800086;23;20017;-81
2023/09/30 12:42:39;;;;;;;12.40;2.85;;;;;;;25.44;36.87;100403.25;12800116;23;20060;-83
2023/09/30 12:47:40;;;;;;;9.63;2.50;;;;;;;25.42;36.69;100399.97;12799526;23;20024;-83
2023/09/30 12:52:40;;;;;;;11.73;2.67;;;;;;;24.50;36.87;100275.28;12799279;23;20020;-83
2023/09/30 12:57:43;;;;;;;11.73;2.67;;;;;;;24.73;36.92;100328.34;12773264;23;20051;-84
2023/09/30 13:02:52;;;;;;;4.10;2.20;;;;;;;24.95;37.50;100368.16;12799929;23;20025;-83
2023/09/30 13:07:53;;;;;;;9.07;2.50;;;;;;;23.98;37.89;100227.09;12799147;23;20070;-85
2023/09/30 13:12:53;;;;;;;16.02;2.78;;;;;;;24.29;38.24;100287.88;12799566;23;20095;-82
2023/09/30 13:17:54;;;;;;;11.52;2.85;;;;;;;24.79;38.14;100378.94;12799177;23;20032;-85
2023/09/30 13:22:55;;;;;;;14.93;5.28;;;;;;;24.02;38.20;100262.66;12799221;23;20028;-86
2023/09/30 13:27:56;;;;;;;12.05;2.80;;;;;;;24.09;38.49;100296.66;12799029;23;20454;-84
2023/09/30 13:32:57;;;;;;;29.15;8.55;;;;;;;24.46;39.25;100371.09;12798687;23;20075;-85
2023/09/30 13:37:58;;;;;;;41.63;8.45;;;;;;;24.27;38.58;100357.06;12799652;23;20060;-84
2023/09/30 13:42:59;;;;;;;33.05;10.07;;;;;;;23.87;38.88;100315.72;12799608;23;20527;-84
2023/09/30 13:48:00;;;;;;;25.58;7.35;;;;;;;23.98;38.98;100345.66;12798201;23;20023;-87
2023/09/30 13:53:02;;;;;;;14.18;4.65;;;;;;;24.19;39.48;100404.47;12798372;23;20044;-85
2023/09/30 13:58:04;;;;;;;9.65;4.32;;;;;;;24.00;39.32;100390.47;12797711;23;20017;-83
2023/09/30 14:03:06;;;;;;;18.83;3.75;;;;;;;23.99;39.80;100404.28;12798575;23;20465;-83
2023/09/30 14:08:07;;;;;;;20.45;3.72;;;;;;;23.13;39.89;100297.25;12798946;23;20019;-82
2023/09/30 14:13:08;;;;;;;14.50;3.70;;;;;;;23.18;39.98;100329.84;12798533;23;20013;-84
2023/09/30 14:18:09;;;;;;;18.58;3.60;;;;;;;23.29;40.17;100363.31;12798237;23;20095;-84
2023/09/30 14:23:09;;;;;;;17.13;3.10;;;;;;;23.30;40.44;100389.31;12770464;23;20083;-85
2023/09/30 14:28:10;;;;;;;13.07;3.30;;;;;;;23.33;40.53;100407.78;12798112;23;20515;-84
2023/09/30 14:33:11;;;;;;;17.67;3.80;;;;;;;22.67;40.63;100329.09;12796897;23;20012;-83
2023/09/30 14:38:12;;;;;;;24.40;5.10;;;;;;;22.92;41.22;100387.44;12771967;23;20077;-83
2023/09/30 14:43:13;;;;;;;25.15;7.40;;;;;;;22.11;41.46;100282.19;12797855;23;20367;-83
2023/09/30 14:48:14;;;;;;;38.13;9.50;;;;;;;22.13;42.13;100323.34;12796952;23;20048;-85
2023/09/30 14:53:15;;;;;;;27.60;5.25;;;;;;;22.45;42.62;100412.13;12770829;23;20021;-84
2023/09/30 14:58:17;;;;;;;24.17;3.65;;;;;;;21.64;43.06;100304.09;12797819;23;20086;-84
2023/09/30 15:03:17;;;;;;;26.17;4.43;;;;;;;21.65;43.20;100325.47;12796844;23;20017;-85
2023/09/30 15:08:18;;;;;;;29.88;12.65;;;;;;;22.05;43.45;100424.66;12797271;23;20345;-84
2023/09/30 15:13:19;;;;;;;28.83;11.75;;;;;;;21.60;43.63;100365.13;12797594;23;20096;-85
2023/09/30 15:18:20;;;;;;;34.63;10.57;;;;;;;21.69;44.22;100414.19;12797234;23;20017;-82
2023/09/30 15:23:21;;;;;;;34.38;7.88;;;;;;;21.19;44.82;100356.13;12796998;23;20028;-81
2023/09/30 15:28:21;;;;;;;30.52;5.55;;;;;;;21.37;45.09;100407.34;12796787;23;20013;-81
2023/09/30 15:33:22;;;;;;;15.27;4.10;;;;;;;20.89;45.55;100346.31;12795863;23;20017;-81
2023/09/30 15:38:23;;;;;;;17.98;3.50;;;;;;;20.39;46.06;100291.94;12797549;23;20021;-80
2023/09/30 15:43:24;;;;;;;21.17;3.33;;;;;;;20.88;46.32;100408.63;12796362;23;20013;-81
2023/09/30 15:48:25;;;;;;;27.45;4.88;;;;;;;20.86;46.81;100425.06;12796807;23;20040;-82
2023/09/30 15:53:28;;;;;;;24.58;5.13;;;;;;;20.50;46.74;100388.28;12800325;23;20021;-83
2023/09/30 15:58:29;;;;;;;41.55;5.43;;;;;;;20.56;47.04;100422.47;12797774;23;20446;-82
2023/09/30 16:03:30;;;;;;;31.63;4.72;;;;;;;20.51;47.45;100446.56;12775284;23;20020;-79
2023/09/30 16:08:30;;;;;;;25.13;4.32;;;;;;;20.43;47.97;100433.41;12799504;23;20023;-79
2023/09/30 16:13:32;;;;;;;20.15;3.67;;;;;;;19.69;48.44;100319.59;12797835;23;20016;-76
2023/09/30 16:18:33;;;;;;;24.00;3.63;;;;;;;20.00;48.82;100361.63;12555193;23;20025;-78
2023/09/30 16:23:34;;;;;;;26.00;3.20;;;;;;;19.97;48.99;100368.31;12666946;23;20347;-77
2023/09/30 16:28:35;;;;;;;15.25;3.10;;;;;;;20.02;49.70;100376.53;12675314;23;20327;-78
2023/09/30 16:33:35;;;;;;;16.33;2.83;;;;;;;19.68;50.35;100334.09;12676935;23;20022;-78
2023/09/30 16:38:36;;;;;;;10.10;3.15;;;;;;;19.87;50.73;100376.13;12677606;23;20439;-78
2023/09/30 16:43:39;;;;;;;12.48;2.83;;;;;;;19.59;51.27;100326.31;12677336;23;20014;-78
2023/09/30 16:48:39;;;;;;;8.55;2.53;;;;;;;20.21;51.81;100446.59;12675181;23;20018;-74
2023/09/30 16:53:40;;;;;;;20.20;3.60;;;;;;;20.06;52.75;100428.94;12674959;23;20018;-75
2023/09/30 16:58:41;;;;;;;16.13;3.20;;;;;;;19.31;53.64;100313.38;12672213;23;20049;-76
2023/09/30 17:03:42;;;;;;;14.07;3.30;;;;;;;20.06;54.44;100433.53;12647336;23;20018;-75
2023/09/30 17:08:43;;;;;;;19.30;3.15;;;;;;;19.82;55.38;100392.97;12675856;23;20446;-75
2023/09/30 17:13:43;;;;;;;7.47;2.92;;;;;;;19.58;56.55;100351.59;12650557;23;20076;-72
2023/09/30 17:18:44;;;;;;;8.00;2.88;;;;;;;19.98;57.24;100431.13;12676213;23;20022;-74
2023/09/30 17:23:45;;;;;;;11.32;2.90;;;;;;;19.81;57.92;100404.00;12676669;23;20026;-74
2023/09/30 17:28:46;;;;;;;9.95;2.83;;;;;;;19.97;58.47;100446.50;12651141;23;20522;-74
2023/09/30 17:33:47;;;;;;;13.93;2.72;;;;;;;19.54;59.22;100377.34;12676516;23;20018;-75
2023/09/30 17:38:48;;;;;;;7.47;2.58;;;;;;;19.78;59.79;100431.41;12676349;23;20328;-74
2023/09/30 17:43:49;;;;;;;12.38;2.85;;;;;;;19.67;60.46;100416.81;12676478;23;20447;-74
2023/09/30 17:48:50;;;;;;;9.45;3.08;;;;;;;19.52;60.87;100403.69;12675990;23;20017;-74
2023/09/30 17:53:52;;;;;;;4.65;2.83;;;;;;;19.22;61.49;100367.78;12648664;23;20053;-74
2023/09/30 17:58:53;;;;;;;11.43;2.95;;;;;;;18.94;62.02;100344.91;12675318;23;20022;-74
2023/09/30 18:03:54;;;;;;;8.20;2.70;;;;;;;19.48;62.66;100437.53;12674316;23;20419;-73
2023/09/30 18:08:56;;;;;;;8.30;2.65;;;;;;;19.40;62.93;100427.03;12675106;23;20489;-75
2023/09/30 18:13:57;;;;;;;6.03;2.88;;;;;;;19.29;63.46;100425.09;12675658;23;20014;-74
2023/09/30 18:18:58;;;;;;;9.75;3.28;;;;;;;19.16;64.15;100413.41;12674893;23;20029;-74
2023/09/30 18:23:58;;;;;;;10.88;3.20;;;;;;;19.12;64.47;100416.78;12675068;23;20093;-74
2023/09/30 18:29:00;;;;;;;7.45;3.00;;;;;;;19.08;64.66;100420.94;12674861;23;20344;-75
2023/09/30 18:34:02;;;;;;;7.80;3.05;;;;;;;19.00;65.22;100429.34;12675587;23;20478;-74
2023/09/30 18:39:04;;;;;;;9.02;3.10;;;;;;;18.69;65.43;100391.44;12675189;23;20354;-73
2023/09/30 18:44:05;;;;;;;9.15;3.22;;;;;;;18.83;65.86;100426.38;12648308;23;20415;-75
2023/09/30 18:49:07;;;;;;;8.93;2.80;;;;;;;18.48;66.13;100395.34;12675416;23;20470;-73
2023/09/30 18:54:08;;;;;;;10.38;3.38;;;;;;;18.39;66.68;100402.03;12675007;23;20040;-73
2023/09/30 18:59:11;;;;;;;9.32;3.13;;;;;;;18.01;66.94;100353.72;12674258;23;20105;-73
2023/09/30 19:04:12;;;;;;;7.53;3.30;;;;;;;18.21;67.41;100402.78;12674989;23;20042;-73
2023/09/30 19:09:13;;;;;;;16.10;3.42;;;;;;;18.03;68.15;100386.56;12674021;23;20447;-74
2023/09/30 19:14:14;;;;;;;9.27;2.95;;;;;;;18.16;68.51;100423.31;12674895;23;20022;-73
2023/09/30 19:19:16;;;;;;;9.50;3.00;;;;;;;18.09;69.04;100423.31;12674343;23;20487;-74
2023/09/30 19:24:17;;;;;;;8.50;3.28;;;;;;;17.69;69.42;100369.75;12648795;23;20017;-74
2023/09/30 19:29:18;;;;;;;8.77;3.15;;;;;;;17.60;69.90;100360.28;12678163;23;20484;-73
2023/09/30 19:34:19;;;;;;;11.15;3.38;;;;;;;17.84;70.17;100409.00;12652462;23;20049;-74
2023/09/30 19:39:19;;;;;;;12.90;3.58;;;;;;;17.60;70.39;100387.16;12679174;23;20054;-74
2023/09/30 19:44:20;;;;;;;9.65;3.47;;;;;;;17.60;71.12;100405.13;12677940;23;20503;-74
2023/09/30 19:49:21;;;;;;;10.35;3.47;;;;;;;17.40;71.33;100383.72;12677157;23;20100;-74
2023/09/30 19:54:21;;;;;;;8.57;3.38;;;;;;;16.84;71.55;100304.56;12678037;23;20014;-73
2023/09/30 19:59:24;;;;;;;12.80;3.60;;;;;;;17.36;72.22;100402.13;12678686;23;20022;-73
2023/09/30 20:04:25;;;;;;;11.60;3.42;;;;;;;16.65;72.23;100308.91;12678288;23;20164;-73
2023/09/30 20:09:28;;;;;;;8.70;3.50;;;;;;;16.80;72.67;100349.78;12677425;23;20591;-73
2023/09/30 20:14:32;;;;;;;13.70;3.15;;;;;;;17.00;73.00;100400.75;12678060;23;20451;-73
2023/09/30 20:19:33;;;;;;;11.15;3.28;;;;;;;16.91;72.89;100399.31;12677949;23;20024;-73
2023/09/30 20:24:35;;;;;;;7.38;3.30;;;;;;;16.72;72.71;100374.13;12677166;23;20473;-73
2023/09/30 20:29:35;;;;;;;8.40;3.38;;;;;;;16.80;72.59;100392.72;12676991;23;20366;-73
2023/09/30 20:34:36;;;;;;;9.02;3.40;;;;;;;16.25;72.73;100311.63;12651009;23;20025;-73
2023/09/30 20:39:37;;;;;;;8.73;3.08;;;;;;;16.56;72.88;100379.91;12677884;23;20355;-73
2023/09/30 20:44:38;;;;;;;7.05;3.25;;;;;;;16.16;72.85;100312.88;12677390;23;20018;-73
2023/09/30 20:49:39;;;;;;;11.32;3.65;;;;;;;16.50;73.04;100380.72;12651454;23;20014;-73
2023/09/30 20:54:40;;;;;;;5.28;3.22;;;;;;;16.01;73.20;100325.63;12677309;23;20061;-73
2023/09/30 20:59:41;;;;;;;8.10;3.25;;;;;;;16.32;73.50;100374.09;12676452;23;20387;-73
2023/09/30 21:04:42;;;;;;;9.38;3.65;;;;;;;16.11;73.95;100352.84;12677753;23;20506;-74
2023/09/30 21:09:45;;;;;;;12.38;3.88;;;;;;;15.59;73.89;100282.88;12677070;23;20049;-73
2023/09/30 21:14:46;;;;;;;15.90;3.60;;;;;;;15.91;73.96;100329.53;12676398;23;20018;-73
2023/09/30 21:19:47;;;;;;;9.95;3.47;;;;;;;15.92;74.23;100336.53;12676795;23;20018;-73
2023/09/30 21:24:48;;;;;;;10.23;3.60;;;;;;;15.85;74.53;100341.03;12676207;23;20025;-73
2023/09/30 21:29:48;;;;;;;6.15;3.13;;;;;;;15.64;74.96;100317.06;12676695;23;20017;-73
2023/09/30 21:34:50;;;;;;;8.65;3.45;;;;;;;15.41;75.14;100291.47;12676460;23;20018;-72
2023/09/30 21:39:50;;;;;;;20.60;3.60;;;;;;;15.71;75.63;100363.47;12676472;23;20028;-72
2023/09/30 21:44:51;;;;;;;10.32;3.22;;;;;;;15.56;76.01;100341.38;12676080;23;20517;-73
2023/09/30 21:49:52;;;;;;;6.88;3.40;;;;;;;15.73;76.26;100364.09;12676783;23;20045;-73
2023/09/30 21:54:53;;;;;;;9.77;3.03;;;;;;;15.41;76.51;100334.31;12676164;23;20447;-73
2023/09/30 21:59:54;;;;;;;6.78;3.40;;;;;;;15.51;76.76;100358.00;12650253;23;20514;-73
2023/09/30 22:04:55;;;;;;;10.38;3.63;;;;;;;15.49;76.90;100374.25;12675316;23;20018;-73
2023/09/30 22:09:56;;;;;;;18.70;4.03;;;;;;;14.86;77.29;100269.19;12676547;23;20108;-73
2023/09/30 22:14:56;;;;;;;17.42;4.88;;;;;;;15.41;77.44;100365.59;12675075;23;20018;-73
2023/09/30 22:19:57;;;;;;;10.02;4.15;;;;;;;15.17;77.50;100332.13;12675037;23;20052;-73
2023/09/30 22:24:59;;;;;;;8.88;3.83;;;;;;;15.23;77.96;100355.44;12674971;23;20069;-73
2023/09/30 22:30:01;;;;;;;18.20;3.30;;;;;;;14.90;77.78;100304.38;12675747;23;20022;-74
2023/09/30 22:35:01;;;;;;;21.73;4.00;;;;;;;15.14;78.23;100353.94;12676022;23;20028;-73
2023/09/30 22:40:05;;;;;;;23.02;4.25;;;;;;;15.04;78.49;100333.69;12674620;23;20021;-73
2023/09/30 22:45:07;;;;;;;7.38;3.58;;;;;;;15.15;78.41;100336.84;12675458;23;20018;-73
2023/09/30 22:50:10;;;;;;;13.52;3.97;;;;;;;14.40;78.82;100234.97;12674873;23;20013;-73
2023/09/30 22:55:15;;;;;;;8.60;4.38;;;;;;;14.90;80.14;100315.94;12675527;23;20018;-73